createdAt,value
2023-03-03T00:00:41.957Z,42.87
2023-03-03T00:03:13.505Z,42.70
2023-03-03T00:05:42.733Z,46.23
2023-03-03T00:08:11.636Z,44.23
2023-03-03T00:10:40.517Z,44.17
2023-03-03T00:13:16.479Z,46.47
2023-03-03T00:15:47.019Z,43.43
2023-03-03T00:18:23.407Z,44.17
2023-03-03T00:20:55.431Z,43.57
2023-03-03T00:23:32.062Z,41.00
2023-03-03T00:26:00.939Z,42.40
2023-03-03T00:28:31.750Z,41.07
2023-03-03T00:31:03.497Z,41.87
2023-03-03T00:33:34.112Z,41.80
2023-03-03T00:36:23.278Z,42.90
2023-03-03T00:38:51.660Z,37.50
2023-03-03T00:41:24.728Z,38.10
2023-03-03T00:43:53.673Z,38.60
2023-03-03T00:46:25.117Z,38.50
2023-03-03T00:48:53.585Z,38.57
2023-03-03T00:51:29.862Z,36.13
2023-03-03T00:53:59.788Z,36.67
2023-03-03T00:56:28.626Z,35.67
2023-03-03T00:58:57.880Z,36.80
2023-03-03T01:01:29.914Z,36.70
2023-03-03T01:03:58.367Z,35.53
2023-03-03T01:06:26.989Z,36.50
2023-03-03T01:08:57.404Z,37.43
2023-03-03T01:11:28.661Z,35.60
2023-03-03T01:13:58.121Z,40.60
2023-03-03T01:16:30.345Z,35.87
2023-03-03T01:18:58.843Z,38.47
2023-03-03T01:21:27.317Z,35.77
2023-03-03T01:23:55.691Z,37.30
2023-03-03T01:26:24.068Z,38.40
2023-03-03T01:28:52.525Z,37.30
2023-03-03T01:31:20.915Z,37.83
2023-03-03T01:33:50.611Z,37.00
2023-03-03T01:36:25.018Z,36.20
2023-03-03T01:38:53.664Z,34.60
2023-03-03T01:41:22.221Z,35.37
2023-03-03T01:43:52.176Z,37.67
2023-03-03T01:46:42.039Z,35.37
2023-03-03T01:49:16.949Z,32.73
2023-03-03T01:51:50.668Z,34.00
2023-03-03T01:54:24.648Z,35.10
2023-03-03T01:56:57.528Z,34.80
2023-03-03T01:59:30.287Z,34.97
2023-03-03T02:01:58.995Z,35.80
2023-03-03T02:04:30.000Z,34.27
2023-03-03T02:07:02.270Z,36.73
2023-03-03T02:09:39.620Z,35.10
2023-03-03T02:12:14.989Z,34.23
2023-03-03T02:14:43.376Z,34.80
2023-03-03T02:17:11.886Z,35.63
2023-03-03T02:19:49.759Z,33.33
2023-03-03T02:22:22.935Z,30.93
2023-03-03T02:24:55.546Z,32.30
2023-03-03T02:27:25.527Z,33.77
2023-03-03T02:29:54.000Z,34.50
2023-03-03T02:32:22.556Z,31.97
2023-03-03T02:34:52.913Z,33.13
2023-03-03T02:37:21.804Z,31.90
2023-03-03T02:39:50.135Z,33.33
2023-03-03T02:42:23.118Z,35.10
2023-03-03T02:44:57.400Z,34.37
2023-03-03T02:47:26.082Z,34.63
2023-03-03T02:49:56.303Z,36.53
2023-03-03T02:52:25.260Z,35.73
2023-03-03T02:54:54.129Z,34.40
2023-03-03T02:57:22.783Z,35.93
2023-03-03T02:59:53.540Z,34.87
2023-03-03T03:02:23.817Z,33.37
2023-03-03T03:04:52.101Z,32.80
2023-03-03T03:07:24.207Z,30.67
2023-03-03T03:09:53.586Z,31.13
2023-03-03T03:12:22.771Z,30.47
2023-03-03T03:14:54.617Z,33.47
2023-03-03T03:17:27.442Z,31.57
2023-03-03T03:19:56.276Z,33.43
2023-03-03T03:22:24.682Z,31.23
2023-03-03T03:24:52.945Z,35.07
2023-03-03T03:27:23.507Z,30.77
2023-03-03T03:29:53.280Z,33.03
2023-03-03T03:32:22.051Z,33.23
2023-03-03T03:34:52.289Z,34.50
2023-03-03T03:37:21.195Z,31.67
2023-03-03T03:39:49.792Z,33.03
2023-03-03T03:42:19.567Z,33.20
2023-03-03T03:44:49.365Z,32.63
2023-03-03T03:47:17.722Z,34.10
2023-03-03T03:49:46.561Z,32.13
2023-03-03T03:52:16.989Z,33.37
2023-03-03T03:54:45.580Z,32.03
2023-03-03T03:57:14.383Z,31.93
2023-03-03T03:59:43.246Z,31.83
2023-03-03T04:02:12.194Z,31.20
2023-03-03T04:04:40.811Z,31.00
2023-03-03T04:07:11.580Z,31.00
2023-03-03T04:09:41.677Z,32.90
2023-03-03T04:12:11.080Z,30.23
2023-03-03T04:14:39.627Z,32.37
2023-03-03T04:17:11.271Z,28.77
2023-03-03T04:19:39.833Z,31.97
2023-03-03T04:22:08.311Z,30.73
2023-03-03T04:24:36.901Z,32.17
2023-03-03T04:27:08.776Z,32.77
2023-03-03T04:29:38.393Z,31.47
2023-03-03T04:32:07.252Z,33.00
2023-03-03T04:34:36.164Z,34.20
2023-03-03T04:37:05.485Z,31.53
2023-03-03T04:39:33.980Z,30.57
2023-03-03T04:42:02.581Z,32.40
2023-03-03T04:44:32.667Z,32.77
2023-03-03T04:47:01.335Z,33.93
2023-03-03T04:49:30.601Z,33.63
2023-03-03T04:52:00.010Z,35.00
2023-03-03T04:54:29.237Z,34.00
2023-03-03T04:56:58.658Z,35.10
2023-03-03T04:59:27.229Z,36.37
2023-03-03T05:01:59.146Z,35.87
2023-03-03T05:04:27.528Z,36.47
2023-03-03T05:06:57.563Z,35.77
2023-03-03T05:09:26.054Z,34.57
2023-03-03T05:11:54.863Z,38.80
2023-03-03T05:14:23.508Z,36.97
2023-03-03T05:16:52.762Z,35.97
2023-03-03T05:19:22.398Z,38.00
2023-03-03T05:21:50.709Z,35.90
2023-03-03T05:24:20.160Z,34.13
2023-03-03T05:26:48.588Z,37.33
2023-03-03T05:29:17.311Z,38.07
2023-03-03T05:31:46.156Z,36.80
2023-03-03T05:34:14.677Z,36.73
2023-03-03T05:36:44.388Z,37.60
2023-03-03T05:39:12.770Z,39.03
2023-03-03T05:41:41.333Z,39.23
2023-03-03T05:44:10.360Z,38.50
2023-03-03T05:46:38.733Z,38.57
2023-03-03T05:49:07.130Z,36.50
2023-03-03T05:51:35.815Z,39.27
2023-03-03T05:54:05.800Z,38.47
2023-03-03T05:56:34.237Z,38.23
2023-03-03T05:59:02.732Z,38.80
2023-03-03T06:01:31.145Z,39.13
2023-03-03T06:04:02.703Z,37.30
2023-03-03T06:06:31.111Z,38.63
2023-03-03T06:08:59.610Z,39.83
2023-03-03T06:11:29.586Z,35.40
2023-03-03T06:13:58.073Z,34.77
2023-03-03T06:16:26.474Z,35.27
2023-03-03T06:18:55.001Z,35.47
2023-03-03T06:21:23.410Z,37.63
2023-03-03T06:23:51.809Z,37.47
2023-03-03T06:26:20.139Z,37.10
2023-03-03T06:28:50.327Z,34.80
2023-03-03T06:31:18.696Z,37.20
2023-03-03T06:33:47.022Z,36.47
2023-03-03T06:36:15.440Z,37.27
2023-03-03T06:38:43.805Z,39.47
2023-03-03T06:41:12.496Z,36.37
2023-03-03T06:43:40.890Z,36.80
2023-03-03T06:46:10.797Z,31.57
2023-03-03T06:48:39.701Z,34.23
2023-03-03T06:51:23.795Z,33.67
2023-03-03T06:53:56.771Z,32.60
2023-03-03T06:56:26.247Z,31.83
2023-03-03T06:58:57.581Z,31.93
2023-03-03T07:01:29.220Z,31.03
2023-03-03T07:03:57.867Z,30.47
2023-03-03T07:06:28.389Z,29.37
2023-03-03T07:08:58.105Z,30.47
2023-03-03T07:11:26.486Z,30.67
2023-03-03T07:13:56.660Z,30.13
2023-03-03T07:16:29.036Z,28.87
2023-03-03T07:19:05.515Z,29.93
2023-03-03T07:21:36.657Z,27.63
2023-03-03T07:24:19.812Z,28.47
2023-03-03T07:26:49.151Z,27.70
2023-03-03T07:29:23.850Z,27.50
2023-03-03T07:32:03.201Z,26.83
2023-03-03T07:34:38.384Z,25.90
2023-03-03T07:37:18.576Z,24.67
2023-03-03T07:39:49.199Z,25.67
2023-03-03T07:42:23.162Z,24.67
2023-03-03T07:45:02.002Z,22.67
2023-03-03T07:47:37.361Z,25.33
2023-03-03T07:50:15.625Z,27.93
2023-03-03T07:52:56.949Z,25.00
2023-03-03T07:55:33.094Z,24.43
2023-03-03T07:58:19.150Z,23.67
2023-03-03T08:01:29.948Z,25.57
2023-03-03T08:04:00.189Z,25.93
2023-03-03T08:06:48.032Z,22.90
2023-03-03T08:09:45.943Z,22.97
2023-03-03T08:12:46.340Z,22.87
2023-03-03T08:15:26.888Z,24.83
2023-03-03T08:17:57.143Z,22.10
2023-03-03T08:20:49.060Z,23.90
2023-03-03T08:23:22.370Z,22.00
2023-03-03T08:25:53.924Z,22.57
2023-03-03T08:28:23.604Z,22.20
2023-03-03T08:31:02.599Z,20.20
2023-03-03T08:33:34.303Z,20.47
2023-03-03T08:36:05.213Z,21.33
2023-03-03T08:38:33.739Z,20.43
2023-03-03T08:41:02.813Z,19.43
2023-03-03T08:43:31.573Z,20.27
2023-03-03T08:46:02.461Z,21.13
2023-03-03T08:48:31.502Z,19.53
2023-03-03T08:51:00.399Z,20.07
2023-03-03T08:53:34.380Z,19.73
2023-03-03T08:56:03.115Z,19.13
2023-03-03T08:58:35.461Z,20.60
2023-03-03T09:01:05.657Z,20.17
2023-03-03T09:03:34.296Z,21.13
2023-03-03T09:06:02.814Z,21.33
2023-03-03T09:08:32.599Z,21.43
2023-03-03T09:11:01.400Z,21.17
2023-03-03T09:13:31.193Z,19.80
2023-03-03T09:16:00.250Z,20.00
2023-03-03T09:18:33.285Z,21.57
2023-03-03T09:21:01.940Z,18.97
2023-03-03T09:23:35.796Z,19.07
2023-03-03T09:26:22.603Z,19.33
2023-03-03T09:28:51.220Z,18.77
2023-03-03T09:31:27.282Z,18.80
2023-03-03T09:34:00.205Z,18.67
2023-03-03T09:36:30.480Z,17.17
2023-03-03T09:39:01.820Z,18.03
2023-03-03T09:42:16.564Z,18.17
2023-03-03T09:45:10.983Z,17.40
2023-03-03T09:48:14.118Z,17.30
2023-03-03T09:50:54.325Z,16.83
2023-03-03T09:53:38.614Z,17.33
2023-03-03T09:56:15.037Z,17.03
2023-03-03T09:59:02.568Z,17.00
2023-03-03T10:01:44.854Z,18.33
2023-03-03T10:04:26.672Z,18.40
2023-03-03T10:07:05.432Z,16.77
2023-03-03T10:09:55.842Z,17.70
2023-03-03T10:12:29.693Z,18.07
2023-03-03T10:15:11.928Z,18.63
2023-03-03T10:17:49.727Z,15.30
2023-03-03T10:20:47.546Z,16.73
2023-03-03T10:23:23.459Z,17.03
2023-03-03T10:26:07.665Z,19.27
2023-03-03T10:29:05.728Z,17.60
2023-03-03T10:31:50.588Z,16.90
2023-03-03T10:34:35.446Z,15.53
2023-03-03T10:37:13.898Z,17.17
2023-03-03T10:39:57.522Z,15.67
2023-03-03T10:42:45.089Z,15.23
2023-03-03T10:45:47.261Z,16.80
2023-03-03T10:48:31.749Z,14.93
2023-03-03T10:51:13.646Z,15.93
2023-03-03T10:53:50.230Z,16.47
2023-03-03T10:56:50.453Z,15.87
2023-03-03T10:59:41.496Z,16.30
2023-03-03T11:02:19.407Z,16.63
2023-03-03T11:05:10.060Z,15.93
2023-03-03T11:07:43.277Z,16.70
2023-03-03T11:10:29.489Z,16.33
2023-03-03T11:13:11.411Z,16.13
2023-03-03T11:15:52.446Z,16.07
2023-03-03T11:18:34.987Z,16.00
2023-03-03T11:21:13.894Z,17.00
2023-03-03T11:24:20.492Z,15.83
2023-03-03T11:27:15.828Z,15.80
2023-03-03T11:29:56.148Z,13.97
2023-03-03T11:32:37.307Z,14.77
2023-03-03T11:35:28.280Z,15.67
2023-03-03T11:38:10.806Z,14.80
2023-03-03T11:40:46.417Z,15.67
2023-03-03T11:43:35.742Z,14.10
2023-03-03T11:46:10.423Z,15.60
2023-03-03T11:48:47.413Z,16.47
2023-03-03T11:51:23.330Z,16.77
2023-03-03T11:54:16.546Z,14.30
2023-03-03T11:56:47.720Z,14.63
2023-03-03T11:59:36.516Z,15.40
2023-03-03T12:02:36.387Z,16.17
2023-03-03T12:05:11.932Z,16.30
2023-03-03T12:07:49.409Z,16.33
2023-03-03T12:10:29.077Z,15.07
2023-03-03T12:13:06.695Z,15.77
2023-03-03T12:15:41.687Z,14.20
2023-03-03T12:18:44.796Z,12.50
2023-03-03T12:21:45.109Z,15.30
2023-03-03T12:24:32.160Z,14.27
2023-03-03T12:27:12.638Z,15.10
2023-03-03T12:29:51.493Z,15.53
2023-03-03T12:32:32.322Z,14.47
2023-03-03T12:35:08.417Z,14.37
2023-03-03T12:37:49.905Z,14.17
2023-03-03T12:40:21.322Z,15.17
2023-03-03T12:43:10.443Z,14.00
2023-03-03T12:45:53.657Z,14.57
2023-03-03T12:48:29.474Z,15.57
2023-03-03T12:51:08.832Z,16.10
2023-03-03T12:53:59.251Z,14.70
2023-03-03T12:56:35.248Z,14.87
2023-03-03T12:59:14.498Z,15.00
2023-03-03T13:01:57.938Z,15.10
2023-03-03T13:04:37.914Z,14.97
2023-03-03T13:07:14.656Z,14.33
2023-03-03T13:09:59.036Z,14.17
2023-03-03T13:12:36.638Z,13.50
2023-03-03T13:15:18.007Z,15.67
2023-03-03T13:17:57.656Z,14.97
2023-03-03T13:20:36.144Z,14.47
2023-03-03T13:23:11.693Z,14.87
2023-03-03T13:25:59.981Z,15.00
2023-03-03T13:28:35.496Z,14.60
2023-03-03T13:31:15.472Z,15.17
2023-03-03T13:33:51.539Z,15.27
2023-03-03T13:36:20.902Z,16.43
2023-03-03T13:38:54.609Z,16.07
2023-03-03T13:41:27.947Z,15.53
2023-03-03T13:44:03.608Z,14.97
2023-03-03T13:46:42.014Z,15.60
2023-03-03T13:49:26.774Z,14.83
2023-03-03T13:52:03.565Z,15.00
2023-03-03T13:54:51.398Z,14.57
2023-03-03T13:57:39.704Z,15.17
2023-03-03T14:00:21.080Z,15.23
2023-03-03T14:03:11.041Z,15.27
2023-03-03T14:05:42.783Z,14.10
2023-03-03T14:08:21.112Z,14.50
2023-03-03T14:11:01.759Z,14.77
2023-03-03T14:13:35.176Z,15.87
2023-03-03T14:16:08.810Z,15.63
2023-03-03T14:18:42.861Z,14.67
2023-03-03T14:21:19.186Z,15.93
2023-03-03T14:23:57.572Z,14.80
2023-03-03T14:26:27.373Z,14.07
2023-03-03T14:29:15.636Z,14.23
2023-03-03T14:31:45.638Z,15.00
2023-03-03T14:34:35.286Z,16.00
2023-03-03T14:37:23.115Z,14.57
2023-03-03T14:40:02.179Z,15.03
2023-03-03T14:42:39.084Z,15.80
2023-03-03T14:45:36.236Z,14.80
2023-03-03T14:48:16.679Z,15.47
2023-03-03T14:50:51.600Z,15.70
2023-03-03T14:53:33.136Z,13.63
2023-03-03T14:56:22.555Z,14.30
2023-03-03T14:58:51.709Z,14.67
2023-03-03T15:01:31.183Z,14.80
2023-03-03T15:04:01.897Z,14.30
2023-03-03T15:06:36.367Z,12.97
2023-03-03T15:09:43.240Z,13.93
2023-03-03T15:12:22.994Z,14.73
2023-03-03T15:14:52.885Z,14.17
2023-03-03T15:17:28.960Z,14.90
2023-03-03T15:20:32.584Z,14.93
2023-03-03T15:23:26.215Z,15.40
2023-03-03T15:25:59.799Z,15.60
2023-03-03T15:28:36.334Z,16.03
2023-03-03T15:31:14.137Z,15.37
2023-03-03T15:33:48.928Z,15.83
2023-03-03T15:36:30.467Z,16.00
2023-03-03T15:39:11.693Z,14.83
2023-03-03T15:41:52.405Z,14.90
2023-03-03T15:44:33.205Z,14.93
2023-03-03T15:47:17.834Z,15.53
2023-03-03T15:50:06.234Z,14.23
2023-03-03T15:52:46.702Z,14.63
2023-03-03T15:55:27.585Z,14.07
2023-03-03T15:58:12.574Z,13.23
2023-03-03T16:00:56.821Z,15.23
2023-03-03T16:03:32.347Z,13.83
2023-03-03T16:06:06.970Z,14.90
2023-03-03T16:08:46.838Z,12.90
2023-03-03T16:11:22.626Z,13.30
2023-03-03T16:14:24.273Z,13.10
2023-03-03T16:17:01.783Z,14.40
2023-03-03T16:19:45.300Z,14.17
2023-03-03T16:22:51.345Z,14.07
2023-03-03T16:25:32.598Z,13.10
2023-03-03T16:28:07.128Z,12.73
2023-03-03T16:30:41.594Z,13.87
2023-03-03T16:33:23.231Z,12.63
2023-03-03T16:36:01.703Z,12.20
2023-03-03T16:38:36.759Z,12.40
2023-03-03T16:41:08.516Z,13.53
2023-03-03T16:43:47.512Z,12.43
2023-03-03T16:46:27.497Z,13.33
2023-03-03T16:49:03.649Z,13.33
2023-03-03T16:51:43.019Z,11.77
2023-03-03T16:54:17.826Z,11.60
2023-03-03T16:56:54.396Z,13.00
2023-03-03T16:59:37.769Z,13.10
2023-03-03T17:02:21.053Z,11.77
2023-03-03T17:04:59.269Z,11.50
2023-03-03T17:07:44.024Z,12.90
2023-03-03T17:10:26.831Z,12.30
2023-03-03T17:13:13.439Z,12.00
2023-03-03T17:15:57.987Z,12.57
2023-03-03T17:18:38.851Z,12.57
2023-03-03T17:21:17.008Z,11.70
2023-03-03T17:24:01.246Z,12.37
2023-03-03T17:26:45.045Z,12.33
2023-03-03T17:29:29.431Z,12.07
2023-03-03T17:32:11.218Z,12.10
2023-03-03T17:34:51.831Z,12.13
2023-03-03T17:37:32.628Z,12.60
2023-03-03T17:40:22.257Z,11.67
2023-03-03T17:43:01.034Z,12.97
2023-03-03T17:45:35.490Z,13.27
2023-03-03T17:48:29.128Z,12.53
2023-03-03T17:51:18.616Z,13.37
2023-03-03T17:54:04.050Z,12.70
2023-03-03T17:56:36.525Z,12.80
2023-03-03T17:59:26.553Z,13.73
2023-03-03T18:02:25.956Z,13.97
2023-03-03T18:05:20.253Z,13.87
2023-03-03T18:08:06.360Z,15.67
2023-03-03T18:10:47.983Z,16.20
2023-03-03T18:13:35.174Z,14.73
2023-03-03T18:16:13.736Z,14.73
2023-03-03T18:19:09.333Z,14.67
2023-03-03T18:21:46.249Z,16.30
2023-03-03T18:24:36.240Z,16.60
2023-03-03T18:27:31.688Z,18.27
2023-03-03T18:30:27.138Z,20.57
2023-03-03T18:33:08.980Z,19.03
2023-03-03T18:35:41.349Z,17.20
2023-03-03T18:38:30.422Z,17.40
2023-03-03T18:41:11.695Z,17.03
2023-03-03T18:43:56.876Z,18.77
2023-03-03T18:46:54.272Z,16.93
2023-03-03T18:49:53.810Z,15.73
2023-03-03T18:52:26.274Z,14.33
2023-03-03T18:55:23.962Z,16.63
2023-03-03T18:58:28.993Z,15.80
2023-03-03T19:01:01.002Z,16.47
2023-03-03T19:03:34.281Z,17.40
2023-03-03T19:06:03.828Z,16.40
2023-03-03T19:08:53.857Z,16.37
2023-03-03T19:11:38.923Z,17.63
2023-03-03T19:14:19.612Z,17.43
2023-03-03T19:16:49.767Z,16.30
2023-03-03T19:19:19.501Z,18.30
2023-03-03T19:21:51.681Z,18.50
2023-03-03T19:24:33.792Z,17.63
2023-03-03T19:27:27.060Z,17.67
2023-03-03T19:30:22.717Z,17.97
2023-03-03T19:33:19.648Z,18.10
2023-03-03T19:36:03.344Z,16.80
2023-03-03T19:38:42.578Z,17.63
2023-03-03T19:41:35.819Z,17.47
2023-03-03T19:44:21.895Z,17.23
2023-03-03T19:47:00.487Z,18.30
2023-03-03T19:49:55.470Z,16.70
2023-03-03T19:52:31.458Z,17.77
2023-03-03T19:55:17.629Z,18.37
2023-03-03T19:57:54.212Z,18.60
2023-03-03T20:00:32.217Z,17.70
2023-03-03T20:03:35.179Z,17.87
2023-03-03T20:06:19.212Z,17.03
2023-03-03T20:08:53.464Z,16.77
2023-03-03T20:11:37.922Z,15.83
2023-03-03T20:14:16.948Z,15.40
2023-03-03T20:16:50.334Z,15.43
2023-03-03T20:19:30.229Z,15.50
2023-03-03T20:22:08.883Z,15.40
2023-03-03T20:24:48.413Z,15.17
2023-03-03T20:27:20.546Z,14.60
2023-03-03T20:30:04.006Z,11.03
2023-03-03T20:32:50.061Z,9.73
2023-03-03T20:35:29.758Z,7.47
2023-03-03T20:38:10.851Z,6.67
2023-03-03T20:40:46.742Z,5.57
2023-03-03T20:43:27.379Z,5.60
2023-03-03T20:46:07.911Z,5.17
2023-03-03T20:48:54.360Z,4.20
2023-03-03T20:51:36.026Z,4.27
2023-03-03T20:54:10.721Z,4.63
2023-03-03T20:56:46.760Z,4.57
2023-03-03T20:59:22.472Z,3.60
2023-03-03T21:01:58.361Z,2.80
2023-03-03T21:04:30.477Z,3.20
2023-03-03T21:06:59.637Z,3.13
2023-03-03T21:09:31.229Z,3.13
2023-03-03T21:12:01.532Z,2.80
2023-03-03T21:14:32.494Z,2.43
2023-03-03T21:17:02.803Z,3.60
2023-03-03T21:19:34.405Z,3.07
2023-03-03T21:22:04.534Z,2.83
2023-03-03T21:24:51.015Z,3.57
2023-03-03T21:27:27.709Z,2.40
2023-03-03T21:30:10.727Z,2.63
2023-03-03T21:32:42.073Z,2.93
2023-03-03T21:35:13.614Z,2.47
2023-03-03T21:37:48.954Z,2.40
2023-03-03T21:40:23.326Z,3.20
2023-03-03T21:42:52.891Z,2.50
2023-03-03T21:45:21.917Z,2.60
2023-03-03T21:47:50.496Z,2.57
2023-03-03T21:50:21.519Z,2.90
2023-03-03T21:52:50.818Z,2.60
2023-03-03T21:55:19.310Z,2.53
2023-03-03T21:57:47.750Z,2.47
2023-03-03T22:00:17.536Z,2.67
2023-03-03T22:02:45.990Z,3.00
2023-03-03T22:05:14.496Z,3.03
2023-03-03T22:07:44.563Z,3.30
2023-03-03T22:10:13.237Z,3.50
2023-03-03T22:12:41.966Z,3.07
2023-03-03T22:15:11.005Z,3.87
2023-03-03T22:17:40.890Z,3.43
2023-03-03T22:20:11.144Z,3.27
2023-03-03T22:22:39.798Z,3.20
2023-03-03T22:25:11.095Z,3.60
2023-03-03T22:27:39.599Z,3.20
2023-03-03T22:30:09.710Z,3.30
2023-03-03T22:32:38.377Z,3.40
2023-03-03T22:35:07.909Z,3.53
2023-03-03T22:37:36.576Z,4.03
2023-03-03T22:40:05.284Z,4.00
2023-03-03T22:42:35.176Z,3.10
2023-03-03T22:45:03.633Z,3.23
2023-03-03T22:47:32.764Z,4.33
2023-03-03T22:50:01.269Z,4.10
2023-03-03T22:52:29.831Z,3.23
2023-03-03T22:54:59.098Z,3.97
2023-03-03T22:57:27.648Z,3.43
2023-03-03T22:59:57.426Z,3.83
2023-03-03T23:02:25.947Z,3.83
2023-03-03T23:04:58.403Z,4.07
2023-03-03T23:07:27.464Z,4.33
2023-03-03T23:09:55.969Z,2.77
2023-03-03T23:12:24.618Z,3.37
2023-03-03T23:14:53.036Z,3.90
2023-03-03T23:17:22.816Z,3.00
2023-03-03T23:19:51.614Z,4.17
2023-03-03T23:22:20.954Z,4.13
2023-03-03T23:24:49.495Z,3.43
2023-03-03T23:27:17.833Z,3.50
2023-03-03T23:29:46.207Z,3.60
2023-03-03T23:32:14.607Z,4.37
2023-03-03T23:34:44.316Z,3.67
2023-03-03T23:37:12.636Z,4.00
2023-03-03T23:39:41.685Z,3.07
2023-03-03T23:42:10.148Z,3.67
2023-03-03T23:44:39.131Z,4.37
2023-03-03T23:47:08.357Z,5.03
2023-03-03T23:49:37.089Z,3.70
2023-03-03T23:52:07.112Z,3.90
2023-03-03T23:54:35.892Z,3.13
2023-03-03T23:57:04.559Z,3.67
2023-03-03T23:59:32.966Z,3.80
